Time;durP1;ratioP1;P1;durP2;ratioP2;P2;SDS_P1;SDS_P2;PMS_P1;PMS_P2;Temp;Humidity;BMP_temperature;BMP_pressure;BME280_temperature;BME280_humidity;BME280_pressure;Samples;Min_cycle;Max_cycle;Signal;HPM_P1;HPM_P2
2023/05/09 00:00:09;;;;;;;1.35;0.88;;;;;;;16.46;74.67;100919.25;4837581;29;20072;-71
2023/05/09 00:02:38;;;;;;;3.72;0.93;;;;;;;16.37;74.64;100916.56;4834793;29;20052;-73
2023/05/09 00:05:08;;;;;;;2.50;0.85;;;;;;;16.29;73.69;100916.50;4835269;29;20070;-73
2023/05/09 00:07:39;;;;;;;2.72;1.00;;;;;;;16.21;76.44;100925.13;4836992;29;20504;-72
2023/05/09 00:10:08;;;;;;;2.35;1.08;;;;;;;16.11;79.30;100927.66;4835351;29;20121;-74
2023/05/09 00:12:36;;;;;;;2.90;1.13;;;;;;;15.99;81.69;100934.47;4832332;29;20060;-72
2023/05/09 00:15:07;;;;;;;2.35;1.05;;;;;;;15.83;83.65;100930.88;4835702;29;20113;-73
2023/05/09 00:17:37;;;;;;;3.15;0.90;;;;;;;15.70;87.41;100935.03;4833014;29;20143;-72
2023/05/09 00:20:08;;;;;;;1.65;0.80;;;;;;;15.50;87.76;100926.97;4834019;29;20524;-72
2023/05/09 00:22:38;;;;;;;2.97;1.33;;;;;;;15.43;87.77;100933.84;4836555;29;20073;-73
2023/05/09 00:25:08;;;;;;;2.63;1.45;;;;;;;15.37;90.74;100944.22;4831082;29;20058;-73
2023/05/09 00:27:36;;;;;;;9.35;4.50;;;;;;;15.37;92.36;100951.13;4831033;29;20120;-72
2023/05/09 00:30:06;;;;;;;8.02;2.53;;;;;;;15.36;93.81;100965.03;4830677;29;20083;-73
2023/05/09 00:32:35;;;;;;;3.03;1.00;;;;;;;15.31;95.46;100964.09;4830054;29;20047;-74
2023/05/09 00:35:04;;;;;;;4.28;0.93;;;;;;;15.19;99.01;100967.44;4827449;29;20539;-76
2023/05/09 00:37:32;;;;;;;4.32;0.93;;;;;;;15.04;97.53;100973.28;4838050;29;20515;-72
2023/05/09 00:40:05;;;;;;;1.75;0.80;;;;;;;14.93;97.26;100972.25;4832993;29;20070;-75
2023/05/09 00:42:34;;;;;;;1.55;0.73;;;;;;;14.87;96.92;100980.84;4827406;29;20060;-72
2023/05/09 00:45:03;;;;;;;1.40;0.70;;;;;;;14.81;97.19;100985.97;4837710;29;20099;-74
2023/05/09 00:47:32;;;;;;;4.85;1.33;;;;;;;14.68;97.33;100979.66;4839243;29;20114;-75
2023/05/09 00:50:01;;;;;;;4.32;1.00;;;;;;;14.54;96.98;100996.75;4834586;29;20046;-75
2023/05/09 00:52:30;;;;;;;1.67;0.68;;;;;;;14.31;97.53;100998.97;4835999;29;20062;-78
2023/05/09 00:54:59;;;;;;;3.17;0.80;;;;;;;14.10;99.73;100986.44;4827293;29;20133;-75
2023/05/09 00:57:29;;;;;;;1.52;0.70;;;;;;;13.86;100.00;100979.03;4835321;29;20118;-72
2023/05/09 00:59:58;;;;;;;4.82;1.30;;;;;;;13.75;100.00;100989.22;4835316;29;20076;-76
2023/05/09 01:02:26;;;;;;;2.67;1.35;;;;;;;13.70;100.00;100983.03;4827465;29;20065;-75
2023/05/09 01:04:55;;;;;;;0.90;0.60;;;;;;;13.69;100.00;100978.69;4830729;29;20053;-74
2023/05/09 01:07:29;;;;;;;2.97;0.70;;;;;;;13.69;100.00;100981.28;4837190;29;20058;-75
2023/05/09 01:10:04;;;;;;;2.83;0.88;;;;;;;13.70;100.00;100983.03;4832111;29;20058;-77
2023/05/09 01:12:42;;;;;;;1.83;0.63;;;;;;;13.72;100.00;100986.53;4828175;29;20145;-75
2023/05/09 01:15:19;;;;;;;2.25;0.70;;;;;;;13.72;100.00;100981.34;4834904;29;20057;-74
2023/05/09 01:17:54;;;;;;;1.58;0.60;;;;;;;13.73;100.00;100983.13;4833025;29;20137;-74
2023/05/09 01:20:32;;;;;;;3.67;0.70;;;;;;;13.71;100.00;100975.28;4831684;29;20049;-74
2023/05/09 01:23:17;;;;;;;4.18;0.60;;;;;;;13.73;100.00;100980.53;4832341;29;20645;-74
2023/05/09 01:25:55;;;;;;;1.55;0.50;;;;;;;13.66;100.00;100981.25;4834388;29;20710;-79
2023/05/09 01:28:42;;;;;;;2.95;0.60;;;;;;;13.67;100.00;100982.97;4835654;29;20050;-79
2023/05/09 01:31:21;;;;;;;1.65;0.45;;;;;;;13.71;100.00;100990.00;4838761;29;20056;-75
2023/05/09 01:33:54;;;;;;;2.88;0.60;;;;;;;13.74;100.00;100984.84;4835281;29;20058;-75
2023/05/09 01:36:24;;;;;;;0.40;0.30;;;;;;;13.72;100.00;100989.16;4833668;29;20518;-77
2023/05/09 01:38:53;;;;;;;1.17;0.45;;;;;;;13.71;100.00;100990.00;4832635;29;20065;-79
2023/05/09 01:41:24;;;;;;;1.17;0.40;;;;;;;13.71;100.00;100992.59;4836933;29;20497;-75
2023/05/09 01:43:56;;;;;;;0.50;0.50;;;;;;;13.70;100.00;100988.22;4834878;29;20060;-78
2023/05/09 01:46:27;;;;;;;0.50;0.30;;;;;;;13.69;100.00;100997.78;4833829;29;20629;-76
2023/05/09 01:48:58;;;;;;;2.03;0.47;;;;;;;13.73;100.00;100998.72;4835709;29;20110;-75
2023/05/09 01:51:28;;;;;;;1.50;0.38;;;;;;;13.67;100.00;100983.84;4834458;29;20107;-78
2023/05/09 01:53:58;;;;;;;4.28;0.70;;;;;;;13.76;100.00;100998.78;4836035;29;20058;-76
2023/05/09 01:56:28;;;;;;;1.45;0.50;;;;;;;13.78;100.00;100997.09;4830314;29;20119;-77
2023/05/09 01:58:57;;;;;;;1.67;0.70;;;;;;;13.79;100.00;101004.06;4833595;29;20125;-77
2023/05/09 02:01:29;;;;;;;3.00;0.80;;;;;;;13.76;100.00;101003.97;4833625;29;20551;-79
2023/05/09 02:03:59;;;;;;;3.75;0.68;;;;;;;13.80;100.00;101008.41;4835678;29;20085;-77
2023/05/09 02:06:28;;;;;;;3.42;0.80;;;;;;;13.83;100.00;101011.06;4835703;29;20057;-79
2023/05/09 02:08:58;;;;;;;1.10;0.80;;;;;;;13.83;100.00;101014.56;4836735;29;20134;-79
2023/05/09 02:11:27;;;;;;;3.40;0.90;;;;;;;13.82;100.00;101011.91;4835617;29;20084;-79
2023/05/09 02:13:56;;;;;;;1.98;1.00;;;;;;;13.81;100.00;101012.75;4840631;29;20121;-77
2023/05/09 02:16:25;;;;;;;2.10;0.95;;;;;;;13.82;100.00;101024.91;4831482;29;20065;-76
2023/05/09 02:18:55;;;;;;;1.95;0.80;;;;;;;13.81;100.00;101020.53;4837482;29;20050;-76
2023/05/09 02:21:24;;;;;;;1.35;0.95;;;;;;;13.82;100.00;101024.91;4837977;29;20413;-75
2023/05/09 02:23:52;;;;;;;2.45;0.90;;;;;;;13.82;100.00;101023.19;4838519;29;20093;-78
2023/05/09 02:26:21;;;;;;;1.13;0.95;;;;;;;13.83;100.00;101026.66;4838141;29;20049;-78
2023/05/09 02:28:51;;;;;;;2.50;1.20;;;;;;;13.83;100.00;101022.34;4842542;29;20061;-76
2023/05/09 02:31:23;;;;;;;1.52;0.90;;;;;;;13.85;100.00;101027.56;4837377;29;20793;-76
2023/05/09 02:33:52;;;;;;;5.85;1.42;;;;;;;13.88;100.00;101026.75;4835629;29;20054;-75
2023/05/09 02:36:24;;;;;;;2.17;1.30;;;;;;;13.93;100.00;101027.75;4836717;29;20114;-75
2023/05/09 02:38:53;;;;;;;1.17;1.00;;;;;;;13.93;100.00;101026.00;4835181;29;20054;-75
2023/05/09 02:41:21;;;;;;;3.00;1.08;;;;;;;13.95;100.00;101031.22;4826713;29;20062;-76
2023/05/09 02:43:50;;;;;;;2.45;1.23;;;;;;;14.00;100.00;101035.69;4826152;29;20079;-77
2023/05/09 02:46:18;;;;;;;1.25;1.00;;;;;;;14.02;100.00;101034.00;4839541;29;20532;-77
2023/05/09 02:48:47;;;;;;;2.05;1.08;;;;;;;14.01;100.00;101036.56;4835199;29;20042;-77
2023/05/09 02:51:16;;;;;;;1.33;0.73;;;;;;;13.98;100.00;101037.38;4838272;29;20054;-81
2023/05/09 02:53:46;;;;;;;1.50;1.00;;;;;;;13.96;100.00;101035.59;4829302;29;20050;-76
2023/05/09 02:56:14;;;;;;;1.67;0.93;;;;;;;13.96;100.00;101040.81;4837289;29;20050;-77
2023/05/09 02:58:49;;;;;;;4.03;1.13;;;;;;;13.96;100.00;101043.41;4836257;29;20058;-77
2023/05/09 03:01:18;;;;;;;3.03;1.10;;;;;;;13.95;100.00;101039.94;4831348;29;20061;-77
2023/05/09 03:03:47;;;;;;;3.67;1.10;;;;;;;13.94;100.00;101051.16;4824385;29;20600;-78
2023/05/09 03:06:15;;;;;;;4.47;1.23;;;;;;;13.93;100.00;101048.56;4830432;29;20058;-77
2023/05/09 03:08:45;;;;;;;4.88;1.25;;;;;;;13.87;100.00;101051.88;4835697;29;20048;-78
2023/05/09 03:11:14;;;;;;;4.03;1.10;;;;;;;13.85;100.00;101053.56;4833538;29;20102;-79
2023/05/09 03:13:42;;;;;;;2.40;0.93;;;;;;;13.83;100.00;101048.38;4830015;29;20054;-77
2023/05/09 03:16:14;;;;;;;3.88;1.23;;;;;;;13.82;100.00;101062.19;4834906;29;20046;-80
2023/05/09 03:18:42;;;;;;;1.55;0.90;;;;;;;13.81;100.00;101065.66;4838162;29;20106;-77
2023/05/09 03:21:11;;;;;;;1.25;0.70;;;;;;;13.78;100.00;101062.97;4834699;29;20115;-76
2023/05/09 03:23:40;;;;;;;1.13;0.70;;;;;;;13.76;100.00;101062.06;4832053;29;20626;-78
2023/05/09 03:26:11;;;;;;;2.75;0.98;;;;;;;13.74;100.00;101073.28;4834696;29;20057;-78
2023/05/09 03:28:39;;;;;;;1.55;0.80;;;;;;;13.70;100.00;101071.44;4836792;29;20078;-76
2023/05/09 03:31:08;;;;;;;1.05;0.52;;;;;;;13.67;100.00;101071.38;4833363;29;20051;-76
2023/05/09 03:33:37;;;;;;;3.60;1.23;;;;;;;13.64;100.00;101081.75;4840022;29;20076;-77
2023/05/09 03:36:05;;;;;;;3.90;0.90;;;;;;;13.62;100.00;101084.28;4832426;29;20054;-77
2023/05/09 03:38:34;;;;;;;1.83;1.00;;;;;;;13.60;100.00;101097.25;4834679;29;20076;-77
2023/05/09 03:41:03;;;;;;;2.13;1.15;;;;;;;13.57;100.00;101104.13;4837125;29;20298;-76
2023/05/09 03:43:33;;;;;;;1.00;0.70;;;;;;;13.51;100.00;101102.25;4833321;29;20809;-80
2023/05/09 03:46:02;;;;;;;2.88;0.93;;;;;;;13.47;100.00;101103.03;4833285;29;20054;-78
2023/05/09 03:48:30;;;;;;;4.13;0.85;;;;;;;13.46;100.00;101108.19;4833459;29;20093;-79
2023/05/09 03:50:59;;;;;;;2.15;0.60;;;;;;;13.44;100.00;101115.06;4829836;29;20440;-81
2023/05/09 03:53:28;;;;;;;1.52;0.68;;;;;;;13.39;100.00;101113.22;4834206;29;20046;-78
2023/05/09 03:55:57;;;;;;;3.15;0.70;;;;;;;13.39;100.00;101127.97;4833892;29;20664;-82
2023/05/09 03:58:25;;;;;;;3.70;0.95;;;;;;;13.36;100.00;101125.28;4836607;29;20054;-77
2023/05/09 04:00:56;;;;;;;2.67;1.00;;;;;;;13.34;100.00;101117.44;4836970;29;20050;-76
2023/05/09 04:03:25;;;;;;;3.38;1.08;;;;;;;13.33;100.00;101126.09;4836175;29;20456;-76
2023/05/09 04:05:54;;;;;;;1.42;0.77;;;;;;;13.32;100.00;101126.06;4844163;29;20053;-86
2023/05/09 04:08:23;;;;;;;1.63;0.95;;;;;;;13.29;100.00;101132.06;4830342;29;20058;-83
2023/05/09 04:10:52;;;;;;;2.25;0.77;;;;;;;13.23;100.00;101136.19;4839009;29;20057;-78
2023/05/09 04:13:21;;;;;;;1.38;0.77;;;;;;;13.07;100.00;101135.81;4835859;29;20061;-79
2023/05/09 04:15:49;;;;;;;1.67;1.25;;;;;;;12.92;100.00;101136.31;4829703;29;20173;-78
2023/05/09 04:18:19;;;;;;;2.80;0.90;;;;;;;12.82;100.00;101136.00;4839246;29;20064;-78
2023/05/09 04:20:48;;;;;;;2.45;0.90;;;;;;;12.79;100.00;101142.00;4835775;29;20050;-77
2023/05/09 04:23:16;;;;;;;1.38;0.93;;;;;;;12.76;100.00;101141.94;4834248;29;20536;-78
2023/05/09 04:25:45;;;;;;;2.42;0.93;;;;;;;12.79;100.00;101137.69;4831377;29;20524;-77
2023/05/09 04:28:13;;;;;;;5.13;0.88;;;;;;;12.76;100.00;101140.22;4836935;29;20054;-78
2023/05/09 04:30:42;;;;;;;3.67;0.90;;;;;;;12.69;100.00;101127.00;4834972;29;20555;-81
2023/05/09 04:33:10;;;;;;;3.00;1.00;;;;;;;12.66;100.00;101132.13;4831899;29;20409;-78
2023/05/09 04:35:41;;;;;;;1.35;0.85;;;;;;;12.69;100.00;101132.19;4835702;29;20053;-79
2023/05/09 04:38:10;;;;;;;3.17;1.20;;;;;;;12.69;100.00;101143.50;4832479;29;20129;-79
2023/05/09 04:40:38;;;;;;;1.50;0.88;;;;;;;12.65;100.00;101133.84;4827574;29;20061;-78
2023/05/09 04:43:07;;;;;;;2.22;1.23;;;;;;;12.67;100.00;101145.16;4837325;29;20046;-81
2023/05/09 04:45:36;;;;;;;3.20;1.17;;;;;;;12.62;100.00;101146.75;4837535;29;20061;-79
2023/05/09 04:48:05;;;;;;;4.50;1.10;;;;;;;12.55;100.00;101152.59;4836538;29;20061;-78
2023/05/09 04:50:34;;;;;;;2.50;1.00;;;;;;;12.51;100.00;101158.56;4836615;29;20162;-80
2023/05/09 04:53:04;;;;;;;2.05;0.90;;;;;;;12.50;100.00;101161.97;4834619;29;20495;-78
2023/05/09 04:55:33;;;;;;;0.88;0.70;;;;;;;12.49;100.00;101160.22;4831802;29;20056;-80
2023/05/09 04:58:02;;;;;;;3.67;1.00;;;;;;;12.49;100.00;101165.41;4831200;29;20500;-79
2023/05/09 05:00:31;;;;;;;6.70;1.08;;;;;;;12.48;100.00;101169.69;4835200;29;20058;-79
2023/05/09 05:02:59;;;;;;;1.83;0.98;;;;;;;12.48;100.00;101168.84;4828857;29;20429;-82
2023/05/09 05:05:28;;;;;;;3.40;1.30;;;;;;;12.47;100.00;101174.88;4836461;29;20050;-83
2023/05/09 05:07:57;;;;;;;2.55;1.20;;;;;;;12.45;100.00;101173.94;4836691;29;20493;-78
2023/05/09 05:10:27;;;;;;;5.57;1.20;;;;;;;12.43;100.00;101171.31;4826490;29;20050;-80
2023/05/09 05:12:56;;;;;;;1.13;0.93;;;;;;;12.33;100.00;101162.38;4834341;29;20074;-80
2023/05/09 05:15:25;;;;;;;4.18;1.20;;;;;;;12.34;100.00;101174.50;4839590;29;20432;-79
2023/05/09 05:17:54;;;;;;;1.50;1.08;;;;;;;12.31;100.00;101177.03;4834900;29;20053;-80
2023/05/09 05:20:22;;;;;;;3.15;1.00;;;;;;;12.27;100.00;101179.47;4836867;29;20648;-80
2023/05/09 05:22:51;;;;;;;4.20;1.50;;;;;;;12.20;100.00;101187.91;4833301;29;20058;-79
2023/05/09 05:25:19;;;;;;;1.48;0.88;;;;;;;12.15;100.00;101191.25;4839134;29;20062;-79
2023/05/09 05:27:50;;;;;;;4.15;1.45;;;;;;;12.10;100.00;101191.97;4836472;29;20084;-79
2023/05/09 05:30:19;;;;;;;2.65;1.05;;;;;;;12.02;100.00;101199.50;4842123;29;20740;-82
2023/05/09 05:32:48;;;;;;;2.60;0.80;;;;;;;11.91;100.00;101201.78;4845240;29;20065;-83
2023/05/09 05:35:17;;;;;;;6.25;1.00;;;;;;;11.90;100.00;101204.31;4835069;29;20123;-82
2023/05/09 05:37:45;;;;;;;1.10;0.82;;;;;;;11.90;100.00;101205.19;4833105;29;20057;-81
2023/05/09 05:40:14;;;;;;;1.50;0.93;;;;;;;11.90;100.00;101205.19;4841995;29;20065;-80
2023/05/09 05:42:43;;;;;;;1.35;1.20;;;;;;;11.88;100.00;101205.97;4836375;29;20054;-81
2023/05/09 05:45:13;;;;;;;1.73;0.98;;;;;;;11.86;100.00;101203.28;4837285;29;20586;-81
2023/05/09 05:47:42;;;;;;;1.10;0.80;;;;;;;11.81;100.00;101204.88;4833321;29;20114;-79
2023/05/09 05:50:11;;;;;;;2.03;1.00;;;;;;;11.73;100.00;101206.34;4834106;29;20451;-78
2023/05/09 05:52:39;;;;;;;3.35;1.02;;;;;;;11.69;100.00;101204.47;4837586;29;20130;-77
2023/05/09 05:55:08;;;;;;;1.20;0.70;;;;;;;11.66;100.00;101204.38;4831716;29;20050;-77
2023/05/09 05:57:38;;;;;;;3.03;1.13;;;;;;;11.70;100.00;101211.41;4837543;29;20065;-77
2023/05/09 06:00:09;;;;;;;2.40;1.10;;;;;;;11.69;100.00;101209.66;4833840;29;20148;-77
2023/05/09 06:02:39;;;;;;;1.20;0.80;;;;;;;11.68;100.00;101218.25;4838064;29;20497;-77
2023/05/09 06:05:09;;;;;;;3.33;0.82;;;;;;;11.65;100.00;101223.34;4828756;29;20061;-77
2023/05/09 06:07:38;;;;;;;0.93;0.70;;;;;;;11.63;100.00;101225.00;4836892;29;20050;-77
2023/05/09 06:10:08;;;;;;;3.05;0.73;;;;;;;11.60;100.00;101219.75;4840476;29;20050;-77
2023/05/09 06:12:37;;;;;;;2.38;0.60;;;;;;;11.51;100.00;101226.38;4839462;29;20053;-78
2023/05/09 06:15:07;;;;;;;0.80;0.52;;;;;;;11.44;100.00;101220.94;4831587;29;20164;-77
2023/05/09 06:17:36;;;;;;;2.08;0.65;;;;;;;11.37;100.00;101224.16;4837570;29;20656;-77
2023/05/09 06:20:08;;;;;;;3.03;0.50;;;;;;;11.36;100.00;101225.88;4834158;29;20053;-78
2023/05/09 06:22:36;;;;;;;2.53;0.88;;;;;;;11.33;100.00;101236.13;4835869;29;20619;-78
2023/05/09 06:25:06;;;;;;;1.80;0.82;;;;;;;11.31;100.00;101232.59;4838033;29;20118;-77
2023/05/09 06:27:35;;;;;;;4.13;1.05;;;;;;;11.32;100.00;101234.38;4831065;29;20611;-78
2023/05/09 06:30:03;;;;;;;0.88;0.60;;;;;;;11.31;100.00;101230.91;4837671;29;20541;-79
2023/05/09 06:32:32;;;;;;;2.20;0.82;;;;;;;11.29;100.00;101235.16;4837338;29;20950;-79
2023/05/09 06:35:01;;;;;;;1.65;0.68;;;;;;;11.28;100.00;101237.69;4834789;29;20064;-79
2023/05/09 06:37:34;;;;;;;0.70;0.43;;;;;;;11.28;100.00;101232.50;4833457;29;20085;-78
2023/05/09 06:40:03;;;;;;;1.40;0.80;;;;;;;11.27;100.00;101241.06;4828907;29;20066;-79
2023/05/09 06:42:32;;;;;;;0.75;0.60;;;;;;;11.25;100.00;101243.63;4834008;29;20141;-78
2023/05/09 06:45:01;;;;;;;1.67;0.65;;;;;;;11.24;100.00;101240.97;4837114;29;20050;-79
2023/05/09 06:47:29;;;;;;;2.38;0.88;;;;;;;11.22;100.00;101243.50;4837814;29;20480;-78
2023/05/09 06:49:58;;;;;;;3.25;0.73;;;;;;;11.21;100.00;101246.94;4835525;29;20057;-78
2023/05/09 06:52:27;;;;;;;1.02;0.65;;;;;;;11.22;100.00;101255.59;4834418;29;20058;-78
2023/05/09 06:55:04;;;;;;;1.92;0.70;;;;;;;11.22;100.00;101253.00;4833169;29;20057;-79
2023/05/09 06:57:33;;;;;;;3.75;1.05;;;;;;;11.21;100.00;101262.47;4834038;29;20066;-78
2023/05/09 07:00:03;;;;;;;0.75;0.60;;;;;;;11.19;100.00;101250.31;4830894;29;20077;-78
2023/05/09 07:02:32;;;;;;;1.05;0.63;;;;;;;11.20;100.00;101252.97;4836220;29;20158;-79
2023/05/09 07:05:00;;;;;;;1.25;0.65;;;;;;;11.19;100.00;101264.13;4833702;29;20050;-80
2023/05/09 07:07:29;;;;;;;1.27;0.52;;;;;;;11.17;100.00;101257.16;4838334;29;20435;-80
2023/05/09 07:10:02;;;;;;;0.90;0.70;;;;;;;11.14;100.00;101267.41;4833749;29;20053;-80
2023/05/09 07:12:32;;;;;;;0.85;0.50;;;;;;;11.05;100.00;101266.25;4836145;29;20422;-80
2023/05/09 07:15:01;;;;;;;2.15;0.60;;;;;;;10.97;100.00;101269.38;4831757;29;20066;-81
2023/05/09 07:17:30;;;;;;;1.25;0.70;;;;;;;10.92;100.00;101268.34;4833436;29;20060;-81
2023/05/09 07:19:58;;;;;;;0.60;0.50;;;;;;;10.87;100.00;101261.28;4833232;29;20080;-81
2023/05/09 07:22:27;;;;;;;1.75;0.60;;;;;;;10.80;100.00;101259.28;4834753;29;20058;-80
2023/05/09 07:24:56;;;;;;;0.85;0.50;;;;;;;10.79;100.00;101264.41;4832846;29;20061;-80
2023/05/09 07:27:26;;;;;;;0.50;0.38;;;;;;;10.79;100.00;101267.00;4838020;29;20054;-80
2023/05/09 07:29:55;;;;;;;1.83;0.93;;;;;;;10.84;100.00;101265.47;4829068;29;20524;-80
2023/05/09 07:32:24;;;;;;;2.70;0.90;;;;;;;10.85;100.00;101272.41;4836241;29;20056;-79
2023/05/09 07:34:52;;;;;;;2.58;1.10;;;;;;;10.86;100.00;101269.00;4837201;29;20492;-80
2023/05/09 07:37:21;;;;;;;1.33;0.50;;;;;;;10.85;100.00;101275.88;4838738;29;20050;-78
2023/05/09 07:39:50;;;;;;;1.27;0.68;;;;;;;10.85;100.00;101275.00;4842078;29;20049;-78
2023/05/09 07:42:19;;;;;;;1.45;0.70;;;;;;;10.85;100.00;101277.59;4837154;29;20049;-78
2023/05/09 07:44:49;;;;;;;1.60;0.60;;;;;;;10.83;100.00;101281.81;4838592;29;20098;-77
2023/05/09 07:47:18;;;;;;;1.35;0.40;;;;;;;10.82;100.00;101285.25;4850657;29;20062;-77
2023/05/09 07:49:46;;;;;;;1.80;1.00;;;;;;;10.80;100.00;101285.19;4839962;29;20405;-77
2023/05/09 07:52:16;;;;;;;1.60;0.82;;;;;;;10.77;100.00;101294.56;4834020;29;20085;-78
2023/05/09 07:54:44;;;;;;;0.63;0.40;;;;;;;10.74;100.00;101294.41;4828764;29;20505;-78
2023/05/09 07:57:13;;;;;;;3.80;0.68;;;;;;;10.72;100.00;101296.06;4835819;29;20109;-79
2023/05/09 07:59:42;;;;;;;1.40;0.70;;;;;;;10.67;100.00;101303.66;4836871;29;20056;-78
2023/05/09 08:02:12;;;;;;;2.90;0.70;;;;;;;10.66;100.00;101307.97;4829368;29;20046;-78
2023/05/09 08:04:41;;;;;;;1.23;0.65;;;;;;;10.66;100.00;101307.09;4836640;29;20053;-79
2023/05/09 08:07:10;;;;;;;4.88;0.60;;;;;;;10.60;100.00;101296.50;4828951;29;20114;-78
2023/05/09 08:09:39;;;;;;;4.25;0.85;;;;;;;10.61;100.00;101309.50;4837493;29;20595;-77
2023/05/09 08:12:08;;;;;;;2.13;0.57;;;;;;;10.55;100.00;101301.50;4836113;29;20053;-79
2023/05/09 08:14:37;;;;;;;2.25;0.80;;;;;;;10.58;100.00;101309.41;4834743;29;20130;-78
2023/05/09 08:17:05;;;;;;;0.88;0.70;;;;;;;10.56;100.00;101311.03;4832624;29;20549;-77
2023/05/09 08:19:35;;;;;;;4.53;0.75;;;;;;;10.55;100.00;101314.44;4837462;29;20137;-78
2023/05/09 08:22:04;;;;;;;2.60;1.17;;;;;;;10.54;100.00;101316.97;4831330;29;20058;-79
2023/05/09 08:24:33;;;;;;;1.10;0.68;;;;;;;10.50;100.00;101315.97;4833228;29;20073;-78
2023/05/09 08:27:01;;;;;;;2.95;0.60;;;;;;;10.47;100.00;101311.56;4834521;29;20115;-79
2023/05/09 08:29:30;;;;;;;2.50;0.82;;;;;;;10.43;100.00;101317.44;4835398;29;20049;-78
2023/05/09 08:31:58;;;;;;;1.13;0.60;;;;;;;10.38;100.00;101315.50;4829494;29;20077;-78
2023/05/09 08:34:27;;;;;;;1.13;0.80;;;;;;;10.35;100.00;101316.22;4832141;29;20054;-78
2023/05/09 08:36:57;;;;;;;0.77;0.50;;;;;;;10.34;100.00;101329.13;4834881;29;20077;-78
2023/05/09 08:39:26;;;;;;;1.35;0.70;;;;;;;10.32;100.00;101330.78;4833596;29;20062;-78
2023/05/09 08:41:59;;;;;;;1.80;0.63;;;;;;;10.27;100.00;101326.25;4830419;29;20536;-78
2023/05/09 08:44:29;;;;;;;0.65;0.55;;;;;;;10.26;100.00;101337.44;4829013;29;20435;-78
2023/05/09 08:47:01;;;;;;;2.47;0.80;;;;;;;10.24;100.00;101336.50;4839182;29;20046;-78
2023/05/09 08:49:29;;;;;;;2.63;0.70;;;;;;;10.20;100.00;101332.00;4832423;29;20561;-78
2023/05/09 08:52:00;;;;;;;2.92;1.02;;;;;;;10.17;100.00;101337.06;4836368;29;20042;-78
2023/05/09 08:54:29;;;;;;;2.95;0.80;;;;;;;10.14;100.00;101331.75;4834943;29;20508;-77
2023/05/09 08:56:58;;;;;;;0.95;0.70;;;;;;;10.11;100.00;101334.22;4835424;29;20782;-78
2023/05/09 08:59:28;;;;;;;1.17;0.80;;;;;;;10.08;100.00;101331.53;4837624;29;20643;-78
2023/05/09 09:01:57;;;;;;;1.95;1.00;;;;;;;10.05;100.00;101344.31;4838919;29;20050;-77
2023/05/09 09:04:26;;;;;;;1.23;0.90;;;;;;;10.02;100.00;101341.59;4840712;29;20496;-77
2023/05/09 09:06:55;;;;;;;1.40;0.65;;;;;;;10.01;100.00;101347.56;4841424;29;20106;-77
2023/05/09 09:09:26;;;;;;;0.75;0.57;;;;;;;9.97;100.00;101350.88;4834998;29;20135;-77
2023/05/09 09:11:55;;;;;;;3.70;0.85;;;;;;;9.96;100.00;101357.72;4836859;29;20103;-78
2023/05/09 09:14:26;;;;;;;1.33;0.70;;;;;;;9.94;100.00;101358.50;4839581;29;20058;-78
2023/05/09 09:16:56;;;;;;;0.98;0.65;;;;;;;9.86;100.00;101350.44;4836118;29;20085;-78
2023/05/09 09:19:30;;;;;;;1.05;0.68;;;;;;;9.85;100.00;101359.88;4838454;29;20118;-77
2023/05/09 09:22:03;;;;;;;4.22;1.02;;;;;;;9.83;100.00;101356.34;4837996;29;20053;-77
2023/05/09 09:24:34;;;;;;;8.90;0.70;;;;;;;9.81;100.00;101354.53;4835518;29;20075;-76
2023/05/09 09:27:07;;;;;;;2.97;0.80;;;;;;;9.78;100.00;101363.03;4840039;29;20049;-77
2023/05/09 09:29:37;;;;;;;2.83;1.05;;;;;;;9.77;100.00;101361.25;4837994;29;20050;-77
2023/05/09 09:32:07;;;;;;;0.85;0.60;;;;;;;9.77;100.00;101360.38;4834386;29;20683;-78
2023/05/09 09:34:36;;;;;;;1.52;0.85;;;;;;;9.75;100.00;101362.88;4835634;29;20057;-78
2023/05/09 09:37:06;;;;;;;1.98;0.93;;;;;;;9.73;100.00;101361.94;4839791;29;20054;-77
2023/05/09 09:39:37;;;;;;;1.77;1.02;;;;;;;9.73;100.00;101368.81;4837370;29;20509;-77
2023/05/09 09:42:12;;;;;;;2.10;0.95;;;;;;;9.71;100.00;101361.00;4836127;29;20054;-77
2023/05/09 09:44:41;;;;;;;1.33;0.70;;;;;;;9.71;100.00;101366.19;4838763;29;20058;-77
2023/05/09 09:47:11;;;;;;;3.03;1.00;;;;;;;9.70;100.00;101364.41;4838171;29;20125;-77
2023/05/09 09:49:47;;;;;;;0.93;0.88;;;;;;;9.70;100.00;101364.41;4834498;29;20144;-77
2023/05/09 09:52:25;;;;;;;1.27;0.90;;;;;;;9.69;100.00;101366.91;4834679;29;20140;-76
2023/05/09 09:54:58;;;;;;;2.58;0.90;;;;;;;9.69;100.00;101361.75;4836859;29;20057;-77
2023/05/09 09:57:35;;;;;;;;;;;;;;;9.68;100.00;101366.03;4839320;29;20079;-77
2023/05/09 10:00:06;;;;;;;2.10;0.80;;;;;;;9.66;100.00;101362.50;4838793;29;19932;-77
2023/05/09 10:02:35;;;;;;;6.30;1.02;;;;;;;9.66;100.00;101370.25;4833343;29;20050;-77
2023/05/09 10:05:10;;;;;;;3.17;1.23;;;;;;;9.63;100.00;101372.72;4835240;29;20057;-77
2023/05/09 10:07:38;;;;;;;2.60;1.00;;;;;;;9.61;100.00;101372.63;4833230;29;20050;-78
2023/05/09 10:10:10;;;;;;;1.77;1.08;;;;;;;9.59;100.00;101370.81;4838480;29;20050;-78
2023/05/09 10:12:39;;;;;;;3.22;1.13;;;;;;;9.53;100.00;101373.09;4836770;29;20079;-77
2023/05/09 10:15:11;;;;;;;7.68;1.02;;;;;;;9.44;100.00;101384.81;4833369;29;20049;-78
2023/05/09 10:17:39;;;;;;;3.55;1.20;;;;;;;9.37;100.00;101384.50;4838967;29;20066;-78
2023/05/09 10:20:09;;;;;;;1.17;0.50;;;;;;;9.34;100.00;101384.34;4835651;29;20107;-78
2023/05/09 10:22:41;;;;;;;4.53;1.17;;;;;;;9.35;100.00;101387.00;4838422;29;20061;-78
2023/05/09 10:25:16;;;;;;;3.00;0.88;;;;;;;9.36;100.00;101385.28;4836838;29;20088;-78
2023/05/09 10:27:48;;;;;;;3.97;1.00;;;;;;;9.35;100.00;101388.72;4835157;29;20126;-76
2023/05/09 10:30:20;;;;;;;2.50;0.90;;;;;;;9.35;100.00;101380.97;4839686;29;20061;-78
2023/05/09 10:32:53;;;;;;;2.33;1.02;;;;;;;9.32;100.00;101389.47;4832111;29;20050;-79
2023/05/09 10:35:26;;;;;;;1.52;0.77;;;;;;;9.27;100.00;101390.94;4833415;29;20046;-78
2023/05/09 10:37:57;;;;;;;1.48;0.90;;;;;;;9.27;100.00;101383.19;4836686;29;20042;-79
2023/05/09 10:40:29;;;;;;;2.90;1.20;;;;;;;9.27;100.00;101393.50;4837032;29;20050;-78
2023/05/09 10:42:57;;;;;;;6.45;1.40;;;;;;;9.27;100.00;101388.34;4840080;29;20114;-79
2023/05/09 10:45:26;;;;;;;1.05;0.82;;;;;;;9.27;100.00;101388.34;4838666;29;20591;-77
2023/05/09 10:47:56;;;;;;;1.30;0.98;;;;;;;9.26;100.00;101389.19;4835503;29;20057;-78
2023/05/09 10:50:26;;;;;;;3.17;0.95;;;;;;;9.25;100.00;101387.38;4834868;29;20064;-77
2023/05/09 10:53:10;;;;;;;1.65;1.10;;;;;;;9.25;100.00;101389.97;4832366;29;20707;-77
2023/05/09 10:55:50;;;;;;;1.42;0.90;;;;;;;9.23;100.00;101391.59;4838754;29;20136;-77
2023/05/09 10:58:25;;;;;;;3.10;0.80;;;;;;;9.20;100.00;101386.31;4835433;29;20064;-78
2023/05/09 11:00:55;;;;;;;1.60;0.80;;;;;;;9.20;100.00;101391.47;4838573;29;20135;-77
2023/05/09 11:03:24;;;;;;;2.60;1.02;;;;;;;9.20;100.00;101396.63;4827984;29;20570;-78
2023/05/09 11:05:54;;;;;;;2.20;0.82;;;;;;;9.17;100.00;101401.66;4834383;29;20058;-77
2023/05/09 11:08:25;;;;;;;2.88;0.70;;;;;;;9.16;100.00;101399.88;4832165;29;20150;-76
2023/05/09 11:10:56;;;;;;;2.08;0.88;;;;;;;9.14;100.00;101396.34;4836230;29;20062;-78
2023/05/09 11:13:26;;;;;;;1.70;1.08;;;;;;;9.13;100.00;101399.75;4836998;29;20058;-78
2023/05/09 11:16:11;;;;;;;1.95;0.90;;;;;;;9.12;100.00;101408.31;4836122;29;20535;-78
2023/05/09 11:18:53;;;;;;;2.85;0.93;;;;;;;9.08;100.00;101401.25;4837311;29;20614;-78
2023/05/09 11:21:22;;;;;;;4.07;0.85;;;;;;;9.06;100.00;101402.88;4837342;29;20107;-78
2023/05/09 11:23:52;;;;;;;1.85;0.73;;;;;;;9.02;100.00;101402.75;4837745;29;20141;-78
2023/05/09 11:26:23;;;;;;;1.92;0.90;;;;;;;8.98;100.00;101403.41;4833258;29;20054;-77
2023/05/09 11:28:55;;;;;;;0.60;0.43;;;;;;;8.96;100.00;101401.56;4837649;29;20081;-78
2023/05/09 11:31:24;;;;;;;1.23;0.80;;;;;;;8.91;100.00;101401.38;4826817;29;20050;-77